Meadow Lake, Alaska
Current Conditions -  °F | °C
As of 8:16 PM on Monday 20 Oct 2014 (Local Time) from PAWS Reporting Station
Clear Clear  
Wind Chill: 28°   Ceiling: Unl
Heat Index: 28°   Visibility: 10mi
Dew Point: 23°   Wind: 0mph
Humidity: 80%   Direction: NA
Pressure: 29.16"   Gusts: NA
Location:  61.5841°N, 149.443°W
Report Text: PAWS 210416Z AUTO 00000KT 10SM CLR M02/M05 A2916 RMK AO1
Loading
Personal Weather Stations






























Interactive Weather Map
Tropical Storm Tracking
New forecast layout! Learn more

10-Day Weather Forecast

Advertisements
Track Severe Weather on mobile